createdAt,value
2019-01-26T00:03:48.814Z,25.40
2019-01-26T00:06:16.613Z,25.30
2019-01-26T00:08:44.442Z,28.32
2019-01-26T00:11:12.297Z,26.52
2019-01-26T00:13:40.146Z,25.80
2019-01-26T00:16:07.997Z,28.00
2019-01-26T00:18:35.838Z,26.87
2019-01-26T00:21:03.644Z,26.33
2019-01-26T00:23:31.471Z,27.70
2019-01-26T00:25:59.299Z,29.72
2019-01-26T00:28:27.146Z,31.93
2019-01-26T00:30:55.008Z,26.05
2019-01-26T00:33:22.812Z,26.87
2019-01-26T00:35:50.649Z,28.55
2019-01-26T00:38:18.487Z,30.50
2019-01-26T00:40:46.309Z,28.87
2019-01-26T00:43:14.114Z,27.58
2019-01-26T00:45:41.944Z,30.27
2019-01-26T00:48:09.779Z,30.72
2019-01-26T00:50:37.608Z,27.48
2019-01-26T00:53:05.402Z,28.45
2019-01-26T00:55:33.225Z,26.30
2019-01-26T00:58:01.033Z,25.90
2019-01-26T01:00:28.855Z,26.48
2019-01-26T01:02:56.659Z,25.82
2019-01-26T01:05:24.484Z,30.23
2019-01-26T01:07:52.373Z,32.73
2019-01-26T01:10:20.430Z,30.70
2019-01-26T01:12:48.231Z,30.30
2019-01-26T01:15:16.173Z,30.30
2019-01-26T01:17:43.985Z,30.62
2019-01-26T01:20:11.890Z,28.52
2019-01-26T01:22:39.724Z,30.20
2019-01-26T01:25:07.529Z,35.65
2019-01-26T01:27:35.359Z,30.60
2019-01-26T01:33:10.687Z,37.45
2019-01-26T01:35:38.486Z,36.05
2019-01-26T01:38:06.318Z,35.60
2019-01-26T01:40:34.116Z,38.40
2019-01-26T01:43:01.925Z,35.33
2019-01-26T01:45:29.729Z,42.60
2019-01-26T01:47:57.673Z,37.03
2019-01-26T01:50:25.464Z,38.13
2019-01-26T01:52:53.442Z,38.15
2019-01-26T01:55:21.245Z,39.58
2019-01-26T01:57:49.049Z,34.65
2019-01-26T02:03:25.481Z,38.23
2019-01-26T02:05:53.295Z,36.75
2019-01-26T02:08:21.108Z,35.85
2019-01-26T02:10:48.936Z,34.45
2019-01-26T02:13:16.749Z,39.65
2019-01-26T02:15:44.551Z,35.98
2019-01-26T02:18:12.370Z,41.15
2019-01-26T02:20:40.157Z,38.83
2019-01-26T02:23:08.001Z,43.20
2019-01-26T02:25:35.785Z,44.45
2019-01-26T02:28:03.616Z,44.85
2019-01-26T02:30:31.433Z,43.50
2019-01-26T02:32:59.257Z,43.45
2019-01-26T02:35:27.086Z,44.25
2019-01-26T02:37:54.928Z,44.80
2019-01-26T02:40:22.730Z,49.90
2019-01-26T02:42:50.530Z,49.65
2019-01-26T02:45:18.334Z,46.70
2019-01-26T02:47:46.152Z,57.13
2019-01-26T02:50:14.780Z,47.85
2019-01-26T02:52:42.687Z,56.10
2019-01-26T02:58:05.115Z,50.48
2019-01-26T03:00:32.945Z,49.88
2019-01-26T03:03:00.799Z,54.83
2019-01-26T03:05:28.677Z,49.33
2019-01-26T03:07:56.493Z,52.67
2019-01-26T03:10:24.302Z,47.75
2019-01-26T03:12:52.128Z,54.03
2019-01-26T03:15:20.490Z,45.90
2019-01-26T03:17:48.281Z,53.02
2019-01-26T03:20:16.215Z,46.83
2019-01-26T03:22:44.027Z,54.13
2019-01-26T03:25:11.982Z,51.00
2019-01-26T03:27:39.813Z,53.25
2019-01-26T03:33:06.422Z,48.85
2019-01-26T03:35:34.309Z,53.73
2019-01-26T03:38:02.225Z,56.02
2019-01-26T03:40:30.016Z,53.90
2019-01-26T03:42:57.848Z,52.15
2019-01-26T03:45:25.641Z,49.15
2019-01-26T03:47:53.465Z,48.28
2019-01-26T03:50:21.294Z,55.48
2019-01-26T03:52:49.078Z,59.70
2019-01-26T04:00:46.541Z,49.38
2019-01-26T04:03:14.358Z,56.42
2019-01-26T04:05:42.194Z,48.10
2019-01-26T04:08:10.026Z,56.02
2019-01-26T04:10:37.848Z,54.65
2019-01-26T04:13:05.913Z,47.03
2019-01-26T04:15:33.710Z,53.20
2019-01-26T04:18:01.546Z,47.88
2019-01-26T04:20:29.337Z,57.05
2019-01-26T04:22:57.182Z,44.08
2019-01-26T04:25:24.985Z,50.48
2019-01-26T04:27:52.795Z,49.20
2019-01-26T04:33:15.175Z,49.67
2019-01-26T04:35:42.958Z,52.40
2019-01-26T04:38:10.782Z,52.30
2019-01-26T04:40:38.570Z,44.38
2019-01-26T04:43:06.595Z,51.08
2019-01-26T04:45:34.418Z,48.23
2019-01-26T04:48:02.202Z,44.42
2019-01-26T04:50:30.011Z,48.60
2019-01-26T04:52:57.807Z,50.85
2019-01-26T04:55:25.617Z,50.43
2019-01-26T04:57:53.414Z,51.05
2019-01-26T05:00:40.294Z,50.08
2019-01-26T05:03:08.222Z,45.20
2019-01-26T05:05:36.084Z,51.18
2019-01-26T05:08:03.986Z,50.85
2019-01-26T05:10:31.846Z,45.80
2019-01-26T05:12:59.651Z,46.83
2019-01-26T05:15:27.452Z,55.35
2019-01-26T05:17:55.261Z,53.98
2019-01-26T05:20:23.953Z,50.70
2019-01-26T05:22:51.744Z,52.53
2019-01-26T05:25:19.563Z,53.87
2019-01-26T05:27:47.369Z,51.80
2019-01-26T05:30:16.649Z,49.70
2019-01-26T05:32:44.469Z,46.53
2019-01-26T05:35:12.670Z,53.73
2019-01-26T05:37:40.460Z,51.95
2019-01-26T05:40:09.792Z,54.13
2019-01-26T05:42:37.581Z,51.05
2019-01-26T05:45:05.540Z,60.25
2019-01-26T05:47:33.354Z,52.83
2019-01-26T05:50:01.152Z,59.77
2019-01-26T05:52:28.957Z,61.20
2019-01-26T05:54:56.753Z,56.80
2019-01-26T05:57:24.579Z,56.55
2019-01-26T05:59:52.373Z,62.50
2019-01-26T06:02:20.214Z,62.73
2019-01-26T06:04:48.036Z,59.00
2019-01-26T06:07:15.889Z,63.55
2019-01-26T06:09:43.758Z,64.47
2019-01-26T06:12:11.617Z,70.15
2019-01-26T06:14:39.473Z,69.90
2019-01-26T06:17:07.302Z,65.42
2019-01-26T06:19:35.090Z,71.47
2019-01-26T06:22:02.935Z,65.25
2019-01-26T06:24:30.737Z,72.75
2019-01-26T06:26:58.577Z,61.92
2019-01-26T06:29:26.373Z,66.75
2019-01-26T06:31:54.204Z,87.90
2019-01-26T06:34:22.001Z,63.68
2019-01-26T06:36:49.833Z,74.07
2019-01-26T06:39:18.010Z,71.45
2019-01-26T06:41:45.866Z,76.60
2019-01-26T06:44:13.693Z,65.83
2019-01-26T06:46:41.504Z,71.95
2019-01-26T06:49:09.323Z,88.95
2019-01-26T06:54:25.741Z,92.60
2019-01-26T06:57:00.734Z,76.00
2019-01-26T06:59:28.557Z,75.75
2019-01-26T07:01:56.373Z,73.25
2019-01-26T07:04:43.257Z,74.55
2019-01-26T07:07:16.675Z,74.07
2019-01-26T07:09:44.519Z,72.15
2019-01-26T07:12:12.346Z,70.25
2019-01-26T07:14:40.172Z,88.30
2019-01-26T07:17:07.999Z,77.15
2019-01-26T07:19:35.866Z,77.62
2019-01-26T07:25:11.261Z,73.30
2019-01-26T07:27:39.069Z,77.35
2019-01-26T07:30:08.240Z,64.53
2019-01-26T07:32:36.068Z,70.92
2019-01-26T07:35:03.929Z,78.85
2019-01-26T07:37:32.468Z,70.30
2019-01-26T07:40:01.294Z,64.60
2019-01-26T07:42:29.097Z,73.50
2019-01-26T07:44:56.922Z,65.97
2019-01-26T07:47:24.728Z,67.12
2019-01-26T07:49:52.577Z,62.10
2019-01-26T07:52:20.782Z,63.73
2019-01-26T07:54:48.609Z,57.85
2019-01-26T07:57:16.401Z,65.92
2019-01-26T07:59:44.278Z,60.17
2019-01-26T08:02:12.086Z,61.45
2019-01-26T08:04:39.918Z,54.35
2019-01-26T08:07:07.716Z,56.30
2019-01-26T08:09:35.567Z,55.67
2019-01-26T08:12:03.414Z,55.12
2019-01-26T08:14:31.257Z,55.25
2019-01-26T08:16:59.075Z,57.75
2019-01-26T08:19:26.897Z,57.70
2019-01-26T08:21:54.729Z,53.58
2019-01-26T08:24:22.601Z,58.13
2019-01-26T08:26:50.477Z,56.15
2019-01-26T08:29:18.301Z,50.92
2019-01-26T08:31:46.205Z,54.90
2019-01-26T08:37:01.050Z,49.70
2019-01-26T08:39:28.869Z,54.53
2019-01-26T08:41:56.690Z,48.52
2019-01-26T08:44:24.493Z,52.60
2019-01-26T08:46:52.337Z,49.25
2019-01-26T08:49:20.142Z,49.83
2019-01-26T08:51:47.969Z,49.90
2019-01-26T08:54:15.781Z,50.08
2019-01-26T08:56:43.610Z,52.83
2019-01-26T08:59:11.453Z,46.50
2019-01-26T09:01:39.274Z,42.35
2019-01-26T09:04:26.401Z,43.40
2019-01-26T09:06:58.573Z,47.20
2019-01-26T09:09:26.487Z,48.60
2019-01-26T09:11:54.391Z,40.95
2019-01-26T09:14:22.242Z,47.95
2019-01-26T09:19:23.402Z,43.95
2019-01-26T09:21:51.228Z,46.55
2019-01-26T09:24:19.081Z,43.35
2019-01-26T09:26:46.904Z,42.65
2019-01-26T09:29:14.753Z,43.90
2019-01-26T09:31:42.565Z,39.90
2019-01-26T09:34:10.383Z,38.38
2019-01-26T09:36:38.176Z,40.90
2019-01-26T09:42:02.055Z,42.43
2019-01-26T09:44:30.119Z,41.75
2019-01-26T09:46:57.943Z,42.15
2019-01-26T09:49:25.823Z,41.30
2019-01-26T09:51:53.715Z,36.50
2019-01-26T09:54:21.553Z,35.38
2019-01-26T09:56:49.376Z,37.05
2019-01-26T09:59:17.357Z,38.75
2019-01-26T10:01:45.207Z,46.73
2019-01-26T10:04:13.056Z,45.03
2019-01-26T10:06:40.881Z,40.48
2019-01-26T10:09:10.069Z,40.23
2019-01-26T10:11:37.920Z,41.37
2019-01-26T10:16:59.962Z,39.35
2019-01-26T10:19:27.807Z,43.55
2019-01-26T10:21:55.654Z,39.48
2019-01-26T10:24:23.547Z,39.88
2019-01-26T10:26:51.357Z,38.40
2019-01-26T10:29:19.182Z,40.50
2019-01-26T10:31:47.053Z,37.48
2019-01-26T10:34:14.935Z,38.73
2019-01-26T10:36:50.405Z,37.60
2019-01-26T10:39:18.890Z,35.58
2019-01-26T10:42:05.861Z,34.85
2019-01-26T10:44:34.681Z,36.40
2019-01-26T10:47:02.545Z,35.75
2019-01-26T10:49:30.412Z,33.13
2019-01-26T10:54:52.486Z,33.98
2019-01-26T10:57:20.397Z,33.78
2019-01-26T10:59:48.279Z,37.42
2019-01-26T11:02:16.153Z,35.73
2019-01-26T11:04:44.026Z,33.18
2019-01-26T11:07:11.901Z,34.38
2019-01-26T11:09:39.769Z,31.77
2019-01-26T11:12:07.659Z,32.13
2019-01-26T11:14:35.711Z,32.00
2019-01-26T11:17:03.686Z,28.35
2019-01-26T11:19:31.530Z,31.52
2019-01-26T11:21:59.446Z,31.95
2019-01-26T11:24:27.312Z,28.30
2019-01-26T11:26:55.181Z,29.67
2019-01-26T11:29:23.077Z,30.72
2019-01-26T11:31:50.953Z,29.92
2019-01-26T11:34:18.853Z,31.70
2019-01-26T11:36:46.688Z,29.25
2019-01-26T11:39:14.554Z,29.87
2019-01-26T11:41:42.378Z,31.68
2019-01-26T11:44:10.327Z,35.63
2019-01-26T11:46:57.190Z,34.10
2019-01-26T11:49:25.049Z,35.33
2019-01-26T11:52:15.112Z,35.03
2019-01-26T11:55:02.452Z,38.25
2019-01-26T11:57:33.174Z,41.63
2019-01-26T12:00:20.066Z,35.45
2019-01-26T12:03:06.886Z,43.50
2019-01-26T12:05:53.758Z,42.95
2019-01-26T12:08:21.604Z,48.08
2019-01-26T12:13:22.984Z,45.52
2019-01-26T12:15:50.858Z,47.88
2019-01-26T12:18:18.779Z,45.80
2019-01-26T12:20:46.673Z,50.52
2019-01-26T12:23:14.601Z,52.05
2019-01-26T12:25:42.593Z,59.80
2019-01-26T12:28:10.426Z,52.35
2019-01-26T12:30:38.328Z,56.00
2019-01-26T12:33:06.305Z,54.10
2019-01-26T12:35:34.162Z,61.68
2019-01-26T12:38:02.026Z,63.63
2019-01-26T12:40:29.895Z,61.02
2019-01-26T12:42:59.208Z,63.33
2019-01-26T12:45:27.376Z,59.90
2019-01-26T12:47:55.225Z,52.62
2019-01-26T12:50:23.126Z,54.20
2019-01-26T12:52:51.280Z,50.17
2019-01-26T12:55:19.241Z,49.45
2019-01-26T12:57:47.126Z,54.48
2019-01-26T13:00:16.462Z,46.85
2019-01-26T13:02:44.620Z,45.88
2019-01-26T13:10:55.149Z,49.67
2019-01-26T13:13:23.040Z,42.43
2019-01-26T13:15:50.873Z,48.48
2019-01-26T13:18:18.726Z,43.00
2019-01-26T13:20:46.689Z,40.20
2019-01-26T13:23:14.558Z,37.15
2019-01-26T13:25:42.423Z,35.38
2019-01-26T13:28:10.280Z,38.50
2019-01-26T13:30:38.083Z,37.65
2019-01-26T13:33:05.926Z,42.30
2019-01-26T13:35:33.740Z,45.67
2019-01-26T13:38:01.589Z,44.30
2019-01-26T13:40:29.445Z,40.98
2019-01-26T13:42:57.294Z,39.03
2019-01-26T13:45:25.117Z,40.67
2019-01-26T13:47:52.965Z,44.75
2019-01-26T13:50:20.749Z,41.23
2019-01-26T13:52:48.836Z,41.30
2019-01-26T13:55:17.332Z,42.95
2019-01-26T13:57:45.179Z,41.88
2019-01-26T14:00:32.146Z,38.42
2019-01-26T14:03:00.062Z,38.60
2019-01-26T14:05:27.887Z,41.15
2019-01-26T14:07:55.718Z,41.55
2019-01-26T14:10:23.565Z,38.55
2019-01-26T14:12:51.679Z,36.83
2019-01-26T14:17:53.189Z,37.85
2019-01-26T14:20:21.775Z,39.85
2019-01-26T14:22:49.582Z,45.25
2019-01-26T14:25:17.537Z,44.20
2019-01-26T14:30:55.085Z,41.55
2019-01-26T14:33:22.902Z,41.70
2019-01-26T14:35:50.750Z,45.25
2019-01-26T14:38:18.583Z,41.42
2019-01-26T14:40:46.437Z,43.58
2019-01-26T14:43:14.292Z,41.70
2019-01-26T14:45:42.228Z,49.35
2019-01-26T14:48:10.078Z,43.68
2019-01-26T14:50:37.944Z,41.15
2019-01-26T14:53:05.799Z,41.20
2019-01-26T14:55:33.695Z,37.95
2019-01-26T14:58:01.502Z,37.98
2019-01-26T15:00:30.330Z,41.77
2019-01-26T15:02:58.175Z,44.42
2019-01-26T15:08:20.294Z,37.13
2019-01-26T15:10:48.154Z,34.33
2019-01-26T15:13:16.024Z,37.42
2019-01-26T15:15:43.914Z,38.85
2019-01-26T15:18:11.816Z,37.53
2019-01-26T15:20:40.190Z,40.83
2019-01-26T15:26:02.346Z,37.90
2019-01-26T15:28:30.230Z,34.73
2019-01-26T15:30:58.319Z,36.17
2019-01-26T15:33:26.190Z,34.83
2019-01-26T15:35:54.074Z,35.13
2019-01-26T15:38:21.997Z,32.63
2019-01-26T15:40:49.807Z,33.58
2019-01-26T15:43:17.681Z,30.27
2019-01-26T15:45:46.837Z,30.32
2019-01-26T15:48:14.720Z,29.00
2019-01-26T15:50:42.585Z,27.70
2019-01-26T15:53:10.434Z,24.60
2019-01-26T15:55:38.265Z,27.80
2019-01-26T15:58:06.247Z,26.95
2019-01-26T16:00:35.256Z,24.82
2019-01-26T16:03:03.111Z,25.50
2019-01-26T16:05:30.947Z,26.33
2019-01-26T16:07:59.018Z,25.08
2019-01-26T16:10:26.971Z,28.75
2019-01-26T16:12:54.894Z,23.27
2019-01-26T16:15:23.963Z,25.27
2019-01-26T16:17:52.108Z,29.48
2019-01-26T16:20:20.583Z,23.80
2019-01-26T16:22:49.845Z,22.30
2019-01-26T16:25:17.706Z,23.70
2019-01-26T16:27:45.541Z,26.12
2019-01-26T16:30:32.443Z,28.40
2019-01-26T16:33:00.386Z,27.02
2019-01-26T16:35:28.569Z,26.15
2019-01-26T16:37:56.439Z,26.52
2019-01-26T16:40:25.466Z,28.38
2019-01-26T16:42:53.323Z,24.07
2019-01-26T16:45:22.409Z,25.12
2019-01-26T16:47:50.214Z,26.87
2019-01-26T16:50:37.146Z,24.40
2019-01-26T16:53:04.999Z,28.27
2019-01-26T16:55:32.813Z,26.05
2019-01-26T16:58:00.683Z,23.22
2019-01-26T17:00:30.428Z,25.72
2019-01-26T17:02:58.302Z,24.40
2019-01-26T17:05:26.172Z,28.73
2019-01-26T17:07:54.081Z,24.70
2019-01-26T17:10:21.921Z,26.35
2019-01-26T17:15:23.537Z,29.00
2019-01-26T17:17:51.414Z,29.23
2019-01-26T17:20:39.919Z,25.52
2019-01-26T17:23:08.125Z,28.30
2019-01-26T17:25:36.085Z,25.52
2019-01-26T17:28:04.078Z,27.10
2019-01-26T17:30:33.263Z,25.62
2019-01-26T17:33:07.353Z,24.12
2019-01-26T17:35:30.809Z,25.20
2019-01-26T17:37:58.793Z,24.87
2019-01-26T17:40:26.825Z,23.45
2019-01-26T17:42:55.048Z,25.45
2019-01-26T17:45:22.955Z,25.82
2019-01-26T17:47:51.120Z,25.55
2019-01-26T17:50:19.862Z,25.75
2019-01-26T17:52:47.732Z,24.43
2019-01-26T17:57:49.865Z,30.97
2019-01-26T18:00:24.574Z,27.27
2019-01-26T18:02:52.443Z,26.70
2019-01-26T18:05:20.398Z,28.25
2019-01-26T18:07:48.271Z,27.70
2019-01-26T18:10:17.126Z,30.80
2019-01-26T18:12:45.101Z,28.75
2019-01-26T18:15:13.339Z,25.32
2019-01-26T18:17:41.178Z,27.07
2019-01-26T18:20:10.689Z,24.90
2019-01-26T18:22:38.534Z,26.23
2019-01-26T18:25:06.461Z,28.02
2019-01-26T18:27:34.360Z,26.77
2019-01-26T18:30:02.263Z,26.23
2019-01-26T18:32:30.440Z,25.48
2019-01-26T18:34:58.345Z,27.48
2019-01-26T18:37:26.201Z,26.55
2019-01-26T18:39:54.067Z,25.80
2019-01-26T18:42:21.899Z,25.88
2019-01-26T18:44:49.793Z,26.85
2019-01-26T18:47:17.721Z,26.25
2019-01-26T18:49:45.602Z,27.52
2019-01-26T18:52:13.606Z,26.87
2019-01-26T18:54:41.470Z,26.35
2019-01-26T18:57:09.433Z,30.88
2019-01-26T18:59:37.359Z,26.55
2019-01-26T19:05:03.659Z,25.25
2019-01-26T19:07:33.317Z,22.00
2019-01-26T19:10:01.186Z,23.07
2019-01-26T19:12:29.209Z,20.82
2019-01-26T19:14:57.103Z,23.38
2019-01-26T19:17:27.477Z,20.27
2019-01-26T19:19:55.415Z,20.88
2019-01-26T19:22:23.375Z,20.92
2019-01-26T19:24:51.404Z,20.92
2019-01-26T19:29:53.178Z,19.37
2019-01-26T19:32:23.250Z,19.00
2019-01-26T19:34:51.142Z,21.42
2019-01-26T19:37:19.075Z,18.05
2019-01-26T19:39:47.007Z,17.20
2019-01-26T19:44:54.383Z,18.10
2019-01-26T19:47:22.365Z,18.27
2019-01-26T19:52:39.055Z,16.73
2019-01-26T19:55:07.087Z,17.67
2019-01-26T19:57:35.020Z,17.77
2019-01-26T20:00:03.001Z,16.85
2019-01-26T20:02:30.849Z,16.65
2019-01-26T20:04:58.771Z,16.27
2019-01-26T20:07:26.647Z,17.50
2019-01-26T20:12:28.124Z,16.45
2019-01-26T20:14:55.998Z,15.60
2019-01-26T20:17:24.145Z,15.55
2019-01-26T20:19:52.105Z,17.40
2019-01-26T20:22:20.278Z,15.93
2019-01-26T20:27:21.572Z,18.40
2019-01-26T20:29:49.462Z,15.88
2019-01-26T20:32:17.389Z,16.65
2019-01-26T20:37:19.299Z,16.20
2019-01-26T20:39:47.264Z,14.98
2019-01-26T20:42:17.451Z,17.87
2019-01-26T20:44:45.432Z,15.18
2019-01-26T20:47:13.309Z,15.83
2019-01-26T20:49:41.218Z,16.20
2019-01-26T20:52:09.098Z,16.42
2019-01-26T20:54:37.512Z,17.07
2019-01-26T20:57:06.593Z,16.57
2019-01-26T21:02:41.938Z,16.05
2019-01-26T21:05:09.907Z,17.80
2019-01-26T21:07:37.887Z,15.85
2019-01-26T21:13:16.395Z,16.35
2019-01-26T21:15:44.478Z,16.75
2019-01-26T21:18:12.401Z,16.82
2019-01-26T21:20:40.339Z,16.32
2019-01-26T21:23:08.240Z,17.55
2019-01-26T21:25:36.116Z,16.90
2019-01-26T21:28:06.994Z,17.40
2019-01-26T21:30:34.858Z,16.60
2019-01-26T21:35:37.405Z,16.52
2019-01-26T21:38:05.318Z,17.60
2019-01-26T21:40:33.186Z,16.77
2019-01-26T21:43:01.400Z,16.60
2019-01-26T21:45:29.266Z,17.27
2019-01-26T21:47:57.129Z,17.42
2019-01-26T21:50:27.403Z,16.17
2019-01-26T21:52:55.604Z,16.30
2019-01-26T21:55:23.552Z,15.88
2019-01-26T21:57:51.667Z,16.60
2019-01-26T22:00:38.602Z,17.60
2019-01-26T22:03:06.610Z,17.12
2019-01-26T22:05:34.575Z,15.85
2019-01-26T22:08:02.574Z,16.57
2019-01-26T22:10:30.497Z,15.48
2019-01-26T22:12:58.418Z,15.80
2019-01-26T22:15:26.415Z,14.85
2019-01-26T22:17:54.354Z,15.68
2019-01-26T22:20:41.299Z,17.10
2019-01-26T22:23:09.630Z,14.85
2019-01-26T22:25:37.546Z,14.60
2019-01-26T22:28:05.470Z,14.10
2019-01-26T22:33:08.880Z,14.23
2019-01-26T22:35:36.777Z,13.80
2019-01-26T22:40:53.557Z,13.28
2019-01-26T22:43:21.468Z,13.65
2019-01-26T22:45:49.414Z,13.75
2019-01-26T22:48:17.293Z,12.93
2019-01-26T22:50:45.214Z,13.40
2019-01-26T22:53:15.827Z,14.05
2019-01-26T22:55:43.729Z,13.72
2019-01-26T22:58:11.638Z,13.43
2019-01-26T23:03:40.470Z,13.45
2019-01-26T23:06:27.406Z,13.53
2019-01-26T23:08:55.347Z,13.58
2019-01-26T23:11:42.411Z,13.35
2019-01-26T23:14:30.860Z,13.85
2019-01-26T23:17:18.113Z,13.18
2019-01-26T23:20:05.337Z,13.13
2019-01-26T23:22:52.309Z,13.85
2019-01-26T23:25:39.310Z,13.60
2019-01-26T23:28:26.237Z,13.68
2019-01-26T23:31:13.263Z,14.23
2019-01-26T23:33:41.243Z,13.62
2019-01-26T23:41:57.863Z,13.65
2019-01-26T23:44:25.786Z,14.38
2019-01-26T23:46:56.441Z,12.88
2019-01-26T23:49:24.382Z,13.48
2019-01-26T23:51:52.285Z,13.70
2019-01-26T23:54:39.186Z,14.18
2019-01-26T23:57:07.135Z,13.40
2019-01-26T23:59:35.136Z,13.40
